sensor_id;sensor_type;location;lat;lon;timestamp;pressure;altitude;pressure_sealevel;temperature;humidity
8280;BME280;8335;42.646;23.380;2024-02-14T00:00:20;143103.84;;;6.09;100.00
8280;BME280;8335;42.646;23.380;2024-02-14T00:02:47;143096.38;;;6.05;100.00
8280;BME280;8335;42.646;23.380;2024-02-14T00:05:15;143065.41;;;5.93;100.00
8280;BME280;8335;42.646;23.380;2024-02-14T00:07:42;142950.25;;;5.45;100.00
8280;BME280;8335;42.646;23.380;2024-02-14T00:10:09;143074.09;;;5.96;100.00
8280;BME280;8335;42.646;23.380;2024-02-14T00:12:36;143012.13;;;5.71;100.00
8280;BME280;8335;42.646;23.380;2024-02-14T00:15:03;143020.81;;;5.74;100.00
8280;BME280;8335;42.646;23.380;2024-02-14T00:17:32;143043.09;;;5.84;100.00
8280;BME280;8335;42.646;23.380;2024-02-14T00:20:00;143064.16;;;5.92;100.00
8280;BME280;8335;42.646;23.380;2024-02-14T00:22:26;143075.34;;;5.97;100.00
8280;BME280;8335;42.646;23.380;2024-02-14T00:24:53;143098.84;;;6.06;100.00
8280;BME280;8335;42.646;23.380;2024-02-14T00:27:19;143114.94;;;6.13;100.00
8280;BME280;8335;42.646;23.380;2024-02-14T00:29:46;143129.81;;;6.19;100.00
8280;BME280;8335;42.646;23.380;2024-02-14T00:32:13;143121.16;;;6.16;100.00
8280;BME280;8335;42.646;23.380;2024-02-14T00:34:41;143102.59;;;6.08;100.00
8280;BME280;8335;42.646;23.380;2024-02-14T00:37:08;143105.06;;;6.09;100.00
8280;BME280;8335;42.646;23.380;2024-02-14T00:39:36;143107.53;;;6.10;100.00
8280;BME280;8335;42.646;23.380;2024-02-14T00:42:03;143105.06;;;6.09;100.00
8280;BME280;8335;42.646;23.380;2024-02-14T00:44:29;143110.00;;;6.11;100.00
8280;BME280;8335;42.646;23.380;2024-02-14T00:46:56;143101.38;;;6.07;100.00
8280;BME280;8335;42.646;23.380;2024-02-14T00:49:24;143080.28;;;5.99;100.00
8280;BME280;8335;42.646;23.380;2024-02-14T00:51:52;143090.19;;;6.03;100.00
8280;BME280;8335;42.646;23.380;2024-02-14T00:54:19;143100.06;;;6.07;100.00
8280;BME280;8335;42.646;23.380;2024-02-14T00:56:46;143098.84;;;6.06;100.00
8280;BME280;8335;42.646;23.380;2024-02-14T00:59:13;143107.53;;;6.10;100.00
8280;BME280;8335;42.646;23.380;2024-02-14T01:01:40;143113.72;;;6.13;100.00
8280;BME280;8335;42.646;23.380;2024-02-14T01:04:07;143107.53;;;6.10;100.00
8280;BME280;8335;42.646;23.380;2024-02-14T01:06:34;143118.69;;;6.15;100.00
8280;BME280;8335;42.646;23.380;2024-02-14T01:09:02;143098.84;;;6.06;100.00
8280;BME280;8335;42.646;23.380;2024-02-14T01:11:29;143116.19;;;6.14;100.00
8280;BME280;8335;42.646;23.380;2024-02-14T01:13:55;143106.31;;;6.10;100.00
8280;BME280;8335;42.646;23.380;2024-02-14T01:16:24;143103.84;;;6.09;100.00
8280;BME280;8335;42.646;23.380;2024-02-14T01:18:51;143114.94;;;6.13;100.00
8280;BME280;8335;42.646;23.380;2024-02-14T01:21:17;143108.78;;;6.11;100.00
8280;BME280;8335;42.646;23.380;2024-02-14T01:23:44;143118.69;;;6.15;100.00
8280;BME280;8335;42.646;23.380;2024-02-14T01:26:12;143108.78;;;6.11;100.00
8280;BME280;8335;42.646;23.380;2024-02-14T01:28:39;143092.66;;;6.04;100.00
8280;BME280;8335;42.646;23.380;2024-02-14T01:31:09;143102.59;;;6.08;100.00
8280;BME280;8335;42.646;23.380;2024-02-14T01:33:37;143107.53;;;6.10;100.00
8280;BME280;8335;42.646;23.380;2024-02-14T01:36:04;143103.84;;;6.09;100.00
8280;BME280;8335;42.646;23.380;2024-02-14T01:38:31;143079.03;;;5.98;100.00
8280;BME280;8335;42.646;23.380;2024-02-14T01:40:58;143084.03;;;6.00;100.00
8280;BME280;8335;42.646;23.380;2024-02-14T01:43:26;143077.81;;;5.98;100.00
8280;BME280;8335;42.646;23.380;2024-02-14T01:45:53;143093.91;;;6.04;100.00
8280;BME280;8335;42.646;23.380;2024-02-14T01:48:20;143106.31;;;6.10;100.00
8280;BME280;8335;42.646;23.380;2024-02-14T01:50:47;143108.78;;;6.11;100.00
8280;BME280;8335;42.646;23.380;2024-02-14T01:53:14;143097.63;;;6.06;100.00
8280;BME280;8335;42.646;23.380;2024-02-14T01:55:41;143080.28;;;5.99;100.00
8280;BME280;8335;42.646;23.380;2024-02-14T01:58:08;143090.19;;;6.03;100.00
8280;BME280;8335;42.646;23.380;2024-02-14T02:00:36;143076.56;;;5.97;100.00
8280;BME280;8335;42.646;23.380;2024-02-14T02:03:03;143081.50;;;5.99;100.00
8280;BME280;8335;42.646;23.380;2024-02-14T02:05:30;143079.03;;;5.98;100.00
8280;BME280;8335;42.646;23.380;2024-02-14T02:07:57;143085.25;;;6.01;100.00
8280;BME280;8335;42.646;23.380;2024-02-14T02:10:23;143065.41;;;5.93;100.00
8280;BME280;8335;42.646;23.380;2024-02-14T02:12:51;143061.69;;;5.91;100.00
8280;BME280;8335;42.646;23.380;2024-02-14T02:15:17;143069.16;;;5.94;100.00
8280;BME280;8335;42.646;23.380;2024-02-14T02:17:45;143057.94;;;5.90;100.00
8280;BME280;8335;42.646;23.380;2024-02-14T02:20:18;143062.94;;;5.92;100.00
8280;BME280;8335;42.646;23.380;2024-02-14T02:22:46;143090.19;;;6.03;100.00
8280;BME280;8335;42.646;23.380;2024-02-14T02:25:14;143087.72;;;6.02;100.00
8280;BME280;8335;42.646;23.380;2024-02-14T02:27:40;143095.13;;;6.05;99.54
8280;BME280;8335;42.646;23.380;2024-02-14T02:30:07;143086.50;;;6.01;99.87
8280;BME280;8335;42.646;23.380;2024-02-14T02:32:35;143077.81;;;5.98;100.00
8280;BME280;8335;42.646;23.380;2024-02-14T02:35:02;143074.09;;;5.96;100.00
8280;BME280;8335;42.646;23.380;2024-02-14T02:37:30;143087.72;;;6.02;99.67
8280;BME280;8335;42.646;23.380;2024-02-14T02:39:58;143087.72;;;6.02;98.87
8280;BME280;8335;42.646;23.380;2024-02-14T02:42:25;143085.25;;;6.01;98.86
8280;BME280;8335;42.646;23.380;2024-02-14T02:44:52;143085.25;;;6.01;98.47
8280;BME280;8335;42.646;23.380;2024-02-14T02:47:18;143092.66;;;6.04;98.83
8280;BME280;8335;42.646;23.380;2024-02-14T02:49:45;143035.66;;;5.80;97.96
8280;BME280;8335;42.646;23.380;2024-02-14T02:52:12;142986.16;;;5.60;98.62
8280;BME280;8335;42.646;23.380;2024-02-14T02:54:39;143072.84;;;5.96;98.94
8280;BME280;8335;42.646;23.380;2024-02-14T02:57:07;143064.16;;;5.92;99.11
8280;BME280;8335;42.646;23.380;2024-02-14T02:59:34;143071.63;;;5.95;98.91
8280;BME280;8335;42.646;23.380;2024-02-14T03:02:01;143067.91;;;5.94;98.57
8280;BME280;8335;42.646;23.380;2024-02-14T03:04:28;143079.03;;;5.98;97.99
8280;BME280;8335;42.646;23.380;2024-02-14T03:06:54;143088.97;;;6.02;97.38
8280;BME280;8335;42.646;23.380;2024-02-14T03:09:21;143087.72;;;6.02;97.71
8280;BME280;8335;42.646;23.380;2024-02-14T03:11:48;143082.75;;;6.00;98.22
8280;BME280;8335;42.646;23.380;2024-02-14T03:14:16;143087.72;;;6.02;96.93
8280;BME280;8335;42.646;23.380;2024-02-14T03:16:43;143060.47;;;5.91;97.55
8280;BME280;8335;42.646;23.380;2024-02-14T03:19:10;143065.41;;;5.93;97.49
8280;BME280;8335;42.646;23.380;2024-02-14T03:21:36;143069.16;;;5.94;97.29
8280;BME280;8335;42.646;23.380;2024-02-14T03:24:03;143061.69;;;5.91;97.10
8280;BME280;8335;42.646;23.380;2024-02-14T03:26:31;143054.25;;;5.88;96.73
8280;BME280;8335;42.646;23.380;2024-02-14T03:28:59;143053.00;;;5.88;97.49
8280;BME280;8335;42.646;23.380;2024-02-14T03:31:27;143060.47;;;5.91;96.57
8280;BME280;8335;42.646;23.380;2024-02-14T03:33:53;143059.19;;;5.90;96.81
8280;BME280;8335;42.646;23.380;2024-02-14T03:36:20;143054.25;;;5.88;97.13
8280;BME280;8335;42.646;23.380;2024-02-14T03:38:48;143057.94;;;5.90;96.95
8280;BME280;8335;42.646;23.380;2024-02-14T03:41:14;143067.91;;;5.94;97.09
8280;BME280;8335;42.646;23.380;2024-02-14T03:43:41;143079.03;;;5.98;96.42
8280;BME280;8335;42.646;23.380;2024-02-14T03:46:08;143075.34;;;5.97;95.86
8280;BME280;8335;42.646;23.380;2024-02-14T03:48:36;143065.41;;;5.93;95.90
8280;BME280;8335;42.646;23.380;2024-02-14T03:51:02;143060.47;;;5.91;95.54
8280;BME280;8335;42.646;23.380;2024-02-14T03:53:29;143064.16;;;5.92;96.13
8280;BME280;8335;42.646;23.380;2024-02-14T03:55:56;143054.25;;;5.88;95.86
8280;BME280;8335;42.646;23.380;2024-02-14T03:58:23;143029.44;;;5.78;96.19
8280;BME280;8335;42.646;23.380;2024-02-14T04:00:50;143039.38;;;5.82;95.94
8280;BME280;8335;42.646;23.380;2024-02-14T04:03:17;143054.25;;;5.88;95.52
8280;BME280;8335;42.646;23.380;2024-02-14T04:05:45;143051.78;;;5.87;95.25
8280;BME280;8335;42.646;23.380;2024-02-14T04:08:13;143076.56;;;5.97;93.81
8280;BME280;8335;42.646;23.380;2024-02-14T04:10:39;143076.56;;;5.97;93.51
8280;BME280;8335;42.646;23.380;2024-02-14T04:13:06;143062.94;;;5.92;94.24
8280;BME280;8335;42.646;23.380;2024-02-14T04:15:35;143049.31;;;5.86;94.20
8280;BME280;8335;42.646;23.380;2024-02-14T04:18:01;143053.00;;;5.88;94.86
8280;BME280;8335;42.646;23.380;2024-02-14T04:20:29;143035.66;;;5.80;94.03
8280;BME280;8335;42.646;23.380;2024-02-14T04:22:57;143044.31;;;5.84;95.39
8280;BME280;8335;42.646;23.380;2024-02-14T04:25:24;143023.28;;;5.75;95.14
8280;BME280;8335;42.646;23.380;2024-02-14T04:27:50;143040.63;;;5.83;95.04
8280;BME280;8335;42.646;23.380;2024-02-14T04:30:17;143053.00;;;5.88;94.90
8280;BME280;8335;42.646;23.380;2024-02-14T04:32:44;143045.56;;;5.85;94.55
8280;BME280;8335;42.646;23.380;2024-02-14T04:35:10;143041.84;;;5.83;94.60
8280;BME280;8335;42.646;23.380;2024-02-14T04:37:38;143050.53;;;5.87;93.90
8280;BME280;8335;42.646;23.380;2024-02-14T04:40:08;143051.78;;;5.87;93.79
8280;BME280;8335;42.646;23.380;2024-02-14T04:42:35;143028.22;;;5.77;94.47
8280;BME280;8335;42.646;23.380;2024-02-14T04:45:02;143035.66;;;5.80;95.04
8280;BME280;8335;42.646;23.380;2024-02-14T04:47:29;143024.50;;;5.76;95.23
8280;BME280;8335;42.646;23.380;2024-02-14T04:49:56;143008.41;;;5.69;95.13
8280;BME280;8335;42.646;23.380;2024-02-14T04:52:22;143024.50;;;5.76;95.02
8280;BME280;8335;42.646;23.380;2024-02-14T04:54:49;143002.25;;;5.67;95.84
8280;BME280;8335;42.646;23.380;2024-02-14T04:57:17;143019.56;;;5.74;95.66
8280;BME280;8335;42.646;23.380;2024-02-14T04:59:45;143019.56;;;5.74;95.63
8280;BME280;8335;42.646;23.380;2024-02-14T05:02:12;143017.09;;;5.73;96.36
8280;BME280;8335;42.646;23.380;2024-02-14T05:04:38;142991.09;;;5.62;95.88
8280;BME280;8335;42.646;23.380;2024-02-14T05:07:05;143010.88;;;5.70;96.27
8280;BME280;8335;42.646;23.380;2024-02-14T05:09:33;143010.88;;;5.70;96.06
8280;BME280;8335;42.646;23.380;2024-02-14T05:11:59;143003.47;;;5.67;95.99
8280;BME280;8335;42.646;23.380;2024-02-14T05:14:27;142991.09;;;5.62;96.60
8280;BME280;8335;42.646;23.380;2024-02-14T05:16:56;142997.31;;;5.65;96.84
8280;BME280;8335;42.646;23.380;2024-02-14T05:19:26;143005.94;;;5.68;96.97
8280;BME280;8335;42.646;23.380;2024-02-14T05:21:54;143013.34;;;5.71;96.14
8280;BME280;8335;42.646;23.380;2024-02-14T05:24:20;143019.56;;;5.74;96.89
8280;BME280;8335;42.646;23.380;2024-02-14T05:26:47;143019.56;;;5.74;96.56
8280;BME280;8335;42.646;23.380;2024-02-14T05:29:14;142994.78;;;5.64;97.21
8280;BME280;8335;42.646;23.380;2024-02-14T05:31:46;143013.34;;;5.71;96.50
8280;BME280;8335;42.646;23.380;2024-02-14T05:34:14;143022.03;;;5.75;96.38
8280;BME280;8335;42.646;23.380;2024-02-14T05:36:41;143009.66;;;5.70;96.42
8280;BME280;8335;42.646;23.380;2024-02-14T05:39:11;143014.63;;;5.72;96.37
8280;BME280;8335;42.646;23.380;2024-02-14T05:41:37;142998.53;;;5.65;96.15
8280;BME280;8335;42.646;23.380;2024-02-14T05:44:04;143002.25;;;5.67;96.51
8280;BME280;8335;42.646;23.380;2024-02-14T05:46:31;143019.56;;;5.74;96.63
8280;BME280;8335;42.646;23.380;2024-02-14T05:48:59;143014.63;;;5.72;95.76
8280;BME280;8335;42.646;23.380;2024-02-14T05:51:26;143013.34;;;5.71;95.53
8280;BME280;8335;42.646;23.380;2024-02-14T05:53:52;143013.34;;;5.71;95.44
8280;BME280;8335;42.646;23.380;2024-02-14T05:56:19;143009.66;;;5.70;95.73
8280;BME280;8335;42.646;23.380;2024-02-14T05:58:46;143013.34;;;5.71;95.54
8280;BME280;8335;42.646;23.380;2024-02-14T06:01:12;143005.94;;;5.68;94.96
8280;BME280;8335;42.646;23.380;2024-02-14T06:03:41;143019.56;;;5.74;94.79
8280;BME280;8335;42.646;23.380;2024-02-14T06:06:09;143004.72;;;5.68;94.27
8280;BME280;8335;42.646;23.380;2024-02-14T06:08:36;142988.63;;;5.61;94.72
8280;BME280;8335;42.646;23.380;2024-02-14T06:11:03;142987.38;;;5.61;94.83
8280;BME280;8335;42.646;23.380;2024-02-14T06:13:31;142987.38;;;5.61;94.42
8280;BME280;8335;42.646;23.380;2024-02-14T06:15:57;142986.16;;;5.60;94.43
8280;BME280;8335;42.646;23.380;2024-02-14T06:18:24;142983.69;;;5.59;94.00
8280;BME280;8335;42.646;23.380;2024-02-14T06:20:51;142987.38;;;5.61;94.09
8280;BME280;8335;42.646;23.380;2024-02-14T06:23:18;143005.94;;;5.68;93.70
8280;BME280;8335;42.646;23.380;2024-02-14T06:25:45;143009.66;;;5.70;93.36
8280;BME280;8335;42.646;23.380;2024-02-14T06:28:12;142998.53;;;5.65;93.37
8280;BME280;8335;42.646;23.380;2024-02-14T06:30:39;142997.31;;;5.65;92.76
8280;BME280;8335;42.646;23.380;2024-02-14T06:33:05;143014.63;;;5.72;92.73
8280;BME280;8335;42.646;23.380;2024-02-14T06:35:32;143017.09;;;5.73;92.68
8280;BME280;8335;42.646;23.380;2024-02-14T06:37:59;143004.72;;;5.68;92.09
8280;BME280;8335;42.646;23.380;2024-02-14T06:40:27;143013.34;;;5.71;91.73
8280;BME280;8335;42.646;23.380;2024-02-14T06:42:54;143002.25;;;5.67;90.71
8280;BME280;8335;42.646;23.380;2024-02-14T06:45:22;142996.03;;;5.64;91.51
8280;BME280;8335;42.646;23.380;2024-02-14T06:47:48;142999.78;;;5.66;91.01
8280;BME280;8335;42.646;23.380;2024-02-14T06:50:15;143010.88;;;5.70;90.83
8280;BME280;8335;42.646;23.380;2024-02-14T06:52:42;143018.34;;;5.73;90.87
8280;BME280;8335;42.646;23.380;2024-02-14T06:55:08;143024.50;;;5.76;90.25
8280;BME280;8335;42.646;23.380;2024-02-14T06:57:36;143023.28;;;5.75;90.37
8280;BME280;8335;42.646;23.380;2024-02-14T07:00:04;143024.50;;;5.76;89.42
8280;BME280;8335;42.646;23.380;2024-02-14T07:02:32;143022.03;;;5.75;90.14
8280;BME280;8335;42.646;23.380;2024-02-14T07:04:58;142961.38;;;5.50;89.39
8280;BME280;8335;42.646;23.380;2024-02-14T07:07:25;143002.25;;;5.67;90.51
8280;BME280;8335;42.646;23.380;2024-02-14T07:09:53;143001.00;;;5.66;90.13
8280;BME280;8335;42.646;23.380;2024-02-14T07:12:19;143010.88;;;5.70;89.86
8280;BME280;8335;42.646;23.380;2024-02-14T07:14:48;143014.63;;;5.72;90.13
8280;BME280;8335;42.646;23.380;2024-02-14T07:17:15;143041.84;;;5.83;89.08
8280;BME280;8335;42.646;23.380;2024-02-14T07:19:42;143043.09;;;5.84;88.56
8280;BME280;8335;42.646;23.380;2024-02-14T07:22:13;143055.47;;;5.89;88.04
8280;BME280;8335;42.646;23.380;2024-02-14T07:24:41;143057.94;;;5.90;87.18
8280;BME280;8335;42.646;23.380;2024-02-14T07:27:07;143069.16;;;5.94;87.51
8280;BME280;8335;42.646;23.380;2024-02-14T07:29:34;143075.34;;;5.97;86.62
8280;BME280;8335;42.646;23.380;2024-02-14T07:32:03;143076.56;;;5.97;86.54
8280;BME280;8335;42.646;23.380;2024-02-14T07:34:29;143102.59;;;6.08;86.22
8280;BME280;8335;42.646;23.380;2024-02-14T07:36:56;143114.94;;;6.13;86.65
8280;BME280;8335;42.646;23.380;2024-02-14T07:39:23;143103.84;;;6.09;85.05
8280;BME280;8335;42.646;23.380;2024-02-14T07:41:50;143132.28;;;6.20;85.15
8280;BME280;8335;42.646;23.380;2024-02-14T07:44:17;143150.88;;;6.28;85.05
8280;BME280;8335;42.646;23.380;2024-02-14T07:46:43;143158.31;;;6.31;83.73
8280;BME280;8335;42.646;23.380;2024-02-14T07:49:11;143157.09;;;6.30;83.52
8280;BME280;8335;42.646;23.380;2024-02-14T07:51:38;143149.63;;;6.27;84.40
8280;BME280;8335;42.646;23.380;2024-02-14T07:54:05;143178.13;;;6.39;84.40
8280;BME280;8335;42.646;23.380;2024-02-14T07:56:32;143200.41;;;6.48;83.93
8280;BME280;8335;42.646;23.380;2024-02-14T07:58:58;143199.19;;;6.48;83.17
8280;BME280;8335;42.646;23.380;2024-02-14T08:01:25;143189.31;;;6.44;83.53
8280;BME280;8335;42.646;23.380;2024-02-14T08:03:52;143108.78;;;6.11;83.36
8280;BME280;8335;42.646;23.380;2024-02-14T08:06:21;143181.84;;;6.41;82.49
8280;BME280;8335;42.646;23.380;2024-02-14T08:08:47;143163.25;;;6.33;83.92
8280;BME280;8335;42.646;23.380;2024-02-14T08:11:16;143145.91;;;6.26;83.63
8280;BME280;8335;42.646;23.380;2024-02-14T08:13:44;143142.22;;;6.24;84.58
8280;BME280;8335;42.646;23.380;2024-02-14T08:16:10;143132.28;;;6.20;83.94
8280;BME280;8335;42.646;23.380;2024-02-14T08:18:37;143129.81;;;6.19;84.47
8280;BME280;8335;42.646;23.380;2024-02-14T08:21:05;143114.94;;;6.13;84.47
8280;BME280;8335;42.646;23.380;2024-02-14T08:23:33;143137.28;;;6.22;83.72
8280;BME280;8335;42.646;23.380;2024-02-14T08:26:00;143137.28;;;6.22;83.44
8280;BME280;8335;42.646;23.380;2024-02-14T08:28:26;143111.25;;;6.12;84.61
8280;BME280;8335;42.646;23.380;2024-02-14T08:30:53;143108.78;;;6.11;84.50
8280;BME280;8335;42.646;23.380;2024-02-14T08:33:20;143102.59;;;6.08;85.17
8280;BME280;8335;42.646;23.380;2024-02-14T08:35:46;143105.06;;;6.09;84.13
8280;BME280;8335;42.646;23.380;2024-02-14T08:38:13;143098.84;;;6.06;84.51
8280;BME280;8335;42.646;23.380;2024-02-14T08:40:41;143072.84;;;5.96;83.78
8280;BME280;8335;42.646;23.380;2024-02-14T08:43:08;143108.78;;;6.11;84.46
8280;BME280;8335;42.646;23.380;2024-02-14T08:45:35;143077.81;;;5.98;84.78
8280;BME280;8335;42.646;23.380;2024-02-14T08:48:04;143087.72;;;6.02;84.34
8280;BME280;8335;42.646;23.380;2024-02-14T08:50:31;143082.75;;;6.00;85.26
8280;BME280;8335;42.646;23.380;2024-02-14T08:52:58;143097.63;;;6.06;84.82
8280;BME280;8335;42.646;23.380;2024-02-14T08:55:24;143080.28;;;5.99;83.79
8280;BME280;8335;42.646;23.380;2024-02-14T08:57:52;143076.56;;;5.97;83.75
8280;BME280;8335;42.646;23.380;2024-02-14T09:00:19;143069.16;;;5.94;83.92
8280;BME280;8335;42.646;23.380;2024-02-14T09:02:47;143080.28;;;5.99;84.04
8280;BME280;8335;42.646;23.380;2024-02-14T09:05:14;143048.03;;;5.86;83.46
8280;BME280;8335;42.646;23.380;2024-02-14T09:07:42;143079.03;;;5.98;83.80
8280;BME280;8335;42.646;23.380;2024-02-14T09:10:09;143090.19;;;6.03;82.97
8280;BME280;8335;42.646;23.380;2024-02-14T09:12:37;143084.03;;;6.00;83.54
8280;BME280;8335;42.646;23.380;2024-02-14T09:15:08;143108.78;;;6.11;83.29
8280;BME280;8335;42.646;23.380;2024-02-14T09:17:37;143112.47;;;6.12;83.63
8280;BME280;8335;42.646;23.380;2024-02-14T09:20:05;143142.22;;;6.24;83.14
8280;BME280;8335;42.646;23.380;2024-02-14T09:22:35;143160.78;;;6.32;82.96
8280;BME280;8335;42.646;23.380;2024-02-14T09:25:02;143118.69;;;6.15;83.56
8280;BME280;8335;42.646;23.380;2024-02-14T09:27:29;143122.41;;;6.16;83.11
8280;BME280;8335;42.646;23.380;2024-02-14T09:29:56;143123.63;;;6.17;83.00
8280;BME280;8335;42.646;23.380;2024-02-14T09:32:24;143128.59;;;6.19;82.77
8280;BME280;8335;42.646;23.380;2024-02-14T09:34:51;143132.28;;;6.20;83.32
8280;BME280;8335;42.646;23.380;2024-02-14T09:37:17;143136.03;;;6.22;84.17
8280;BME280;8335;42.646;23.380;2024-02-14T09:39:44;143137.28;;;6.22;83.43
8280;BME280;8335;42.646;23.380;2024-02-14T09:42:13;143133.53;;;6.21;84.03
8280;BME280;8335;42.646;23.380;2024-02-14T09:44:40;143143.44;;;6.25;84.37
8280;BME280;8335;42.646;23.380;2024-02-14T09:47:07;143121.16;;;6.16;84.62
8280;BME280;8335;42.646;23.380;2024-02-14T09:49:37;143119.94;;;6.15;84.25
8280;BME280;8335;42.646;23.380;2024-02-14T09:52:05;143048.03;;;5.86;83.95
8280;BME280;8335;42.646;23.380;2024-02-14T09:54:32;143087.72;;;6.02;83.47
8280;BME280;8335;42.646;23.380;2024-02-14T09:57:01;143088.97;;;6.02;82.89
8280;BME280;8335;42.646;23.380;2024-02-14T09:59:29;143086.50;;;6.01;83.02
8280;BME280;8335;42.646;23.380;2024-02-14T10:01:56;143084.03;;;6.00;82.76
8280;BME280;8335;42.646;23.380;2024-02-14T10:04:23;143065.41;;;5.93;82.83
8280;BME280;8335;42.646;23.380;2024-02-14T10:06:51;143060.47;;;5.91;84.40
8280;BME280;8335;42.646;23.380;2024-02-14T10:09:21;143057.94;;;5.90;82.89
8280;BME280;8335;42.646;23.380;2024-02-14T10:11:48;143040.63;;;5.83;83.89
8280;BME280;8335;42.646;23.380;2024-02-14T10:14:15;143033.22;;;5.79;82.90
8280;BME280;8335;42.646;23.380;2024-02-14T10:16:41;143031.97;;;5.79;83.00
8280;BME280;8335;42.646;23.380;2024-02-14T10:19:14;143024.50;;;5.76;83.60
8280;BME280;8335;42.646;23.380;2024-02-14T10:21:41;142997.31;;;5.65;83.67
8280;BME280;8335;42.646;23.380;2024-02-14T10:24:09;143004.72;;;5.68;84.15
8280;BME280;8335;42.646;23.380;2024-02-14T10:26:37;143030.69;;;5.78;82.81
8280;BME280;8335;42.646;23.380;2024-02-14T10:29:05;143033.22;;;5.79;83.70
8280;BME280;8335;42.646;23.380;2024-02-14T10:31:34;143053.00;;;5.88;82.73
8280;BME280;8335;42.646;23.380;2024-02-14T10:34:01;143039.38;;;5.82;83.24
8280;BME280;8335;42.646;23.380;2024-02-14T10:36:31;143044.31;;;5.84;83.30
8280;BME280;8335;42.646;23.380;2024-02-14T10:39:00;143040.63;;;5.83;82.63
8280;BME280;8335;42.646;23.380;2024-02-14T10:41:30;143035.66;;;5.80;82.92
8280;BME280;8335;42.646;23.380;2024-02-14T10:44:01;143034.44;;;5.80;83.02
8280;BME280;8335;42.646;23.380;2024-02-14T10:46:31;143044.31;;;5.84;83.22
8280;BME280;8335;42.646;23.380;2024-02-14T10:49:02;143017.09;;;5.73;83.10
8280;BME280;8335;42.646;23.380;2024-02-14T10:51:31;143040.63;;;5.83;81.87
8280;BME280;8335;42.646;23.380;2024-02-14T10:53:58;143090.19;;;6.03;81.44
8280;BME280;8335;42.646;23.380;2024-02-14T10:56:28;143070.41;;;5.95;81.52
8280;BME280;8335;42.646;23.380;2024-02-14T10:58:57;143091.44;;;6.03;81.53
8280;BME280;8335;42.646;23.380;2024-02-14T11:01:24;143100.06;;;6.07;80.67
8280;BME280;8335;42.646;23.380;2024-02-14T11:03:53;143095.13;;;6.05;80.87
8280;BME280;8335;42.646;23.380;2024-02-14T11:06:21;143119.94;;;6.15;81.52
8280;BME280;8335;42.646;23.380;2024-02-14T11:08:57;143124.88;;;6.17;80.31
8280;BME280;8335;42.646;23.380;2024-02-14T11:11:24;143137.28;;;6.22;81.22
8280;BME280;8335;42.646;23.380;2024-02-14T11:13:52;143139.75;;;6.23;79.90
8280;BME280;8335;42.646;23.380;2024-02-14T11:16:25;143122.41;;;6.16;78.80
8280;BME280;8335;42.646;23.380;2024-02-14T11:18:53;143075.34;;;5.97;79.88
8280;BME280;8335;42.646;23.380;2024-02-14T11:21:28;143107.53;;;6.10;80.33
8280;BME280;8335;42.646;23.380;2024-02-14T11:23:56;143122.41;;;6.16;79.41
8280;BME280;8335;42.646;23.380;2024-02-14T11:26:24;143117.41;;;6.14;78.92
8280;BME280;8335;42.646;23.380;2024-02-14T11:28:59;143124.88;;;6.17;78.91
8280;BME280;8335;42.646;23.380;2024-02-14T11:31:32;143128.59;;;6.19;79.61
8280;BME280;8335;42.646;23.380;2024-02-14T11:34:03;143158.31;;;6.31;78.75
8280;BME280;8335;42.646;23.380;2024-02-14T11:36:31;143178.13;;;6.39;78.85
8280;BME280;8335;42.646;23.380;2024-02-14T11:38:58;143201.66;;;6.49;78.49
8280;BME280;8335;42.646;23.380;2024-02-14T11:41:27;143207.88;;;6.51;77.58
8280;BME280;8335;42.646;23.380;2024-02-14T11:43:54;143212.81;;;6.53;76.79
8280;BME280;8335;42.646;23.380;2024-02-14T11:46:20;143190.53;;;6.44;76.59
8280;BME280;8335;42.646;23.380;2024-02-14T11:48:48;143176.91;;;6.39;77.76
8280;BME280;8335;42.646;23.380;2024-02-14T11:51:15;143173.19;;;6.37;76.84
8280;BME280;8335;42.646;23.380;2024-02-14T11:53:42;143174.44;;;6.38;77.15
8280;BME280;8335;42.646;23.380;2024-02-14T11:56:08;143162.03;;;6.32;78.03
8280;BME280;8335;42.646;23.380;2024-02-14T11:58:35;143190.53;;;6.44;76.68
8280;BME280;8335;42.646;23.380;2024-02-14T12:01:03;143193.00;;;6.45;77.38
8280;BME280;8335;42.646;23.380;2024-02-14T12:03:31;143197.94;;;6.47;77.91
8280;BME280;8335;42.646;23.380;2024-02-14T12:05:59;143190.53;;;6.44;78.78
8280;BME280;8335;42.646;23.380;2024-02-14T12:08:25;143209.13;;;6.52;78.37
8280;BME280;8335;42.646;23.380;2024-02-14T12:10:53;143205.41;;;6.50;79.31
8280;BME280;8335;42.646;23.380;2024-02-14T12:13:20;143179.38;;;6.40;78.36
8280;BME280;8335;42.646;23.380;2024-02-14T12:15:49;143138.50;;;6.23;78.65
8280;BME280;8335;42.646;23.380;2024-02-14T12:18:16;143129.81;;;6.19;77.66
8280;BME280;8335;42.646;23.380;2024-02-14T12:20:43;143152.09;;;6.28;77.89
8280;BME280;8335;42.646;23.380;2024-02-14T12:23:15;143166.97;;;6.34;77.71
8280;BME280;8335;42.646;23.380;2024-02-14T12:25:43;143150.88;;;6.28;77.96
8280;BME280;8335;42.646;23.380;2024-02-14T12:28:13;143169.44;;;6.35;78.77
8280;BME280;8335;42.646;23.380;2024-02-14T12:30:44;143188.06;;;6.43;78.85
8280;BME280;8335;42.646;23.380;2024-02-14T12:33:15;143201.66;;;6.49;78.19
8280;BME280;8335;42.646;23.380;2024-02-14T12:35:42;143205.41;;;6.50;78.92
8280;BME280;8335;42.646;23.380;2024-02-14T12:38:10;143204.13;;;6.50;78.93
8280;BME280;8335;42.646;23.380;2024-02-14T12:40:39;143212.81;;;6.53;78.13
8280;BME280;8335;42.646;23.380;2024-02-14T12:43:08;143202.91;;;6.49;78.05
8280;BME280;8335;42.646;23.380;2024-02-14T12:45:34;143219.00;;;6.56;77.45
8280;BME280;8335;42.646;23.380;2024-02-14T12:48:01;143226.47;;;6.59;78.07
8280;BME280;8335;42.646;23.380;2024-02-14T12:50:28;143228.94;;;6.60;78.00
8280;BME280;8335;42.646;23.380;2024-02-14T12:52:55;143245.03;;;6.67;76.97
8280;BME280;8335;42.646;23.380;2024-02-14T12:55:21;143253.69;;;6.70;77.01
8280;BME280;8335;42.646;23.380;2024-02-14T12:57:50;143251.22;;;6.69;76.25
8280;BME280;8335;42.646;23.380;2024-02-14T13:00:17;143250.00;;;6.69;76.17
8280;BME280;8335;42.646;23.380;2024-02-14T13:02:44;143247.53;;;6.68;76.51
8280;BME280;8335;42.646;23.380;2024-02-14T13:05:11;143247.53;;;6.68;76.77
8280;BME280;8335;42.646;23.380;2024-02-14T13:07:37;143245.03;;;6.67;77.15
8280;BME280;8335;42.646;23.380;2024-02-14T13:10:05;143266.09;;;6.75;75.08